sensor_id;sensor_type;location;lat;lon;timestamp;pressure;altitude;pressure_sealevel;temperature;humidity
21826;BME280;11075;47.944;11.776;2023-07-20T00:00:06;94664.97;;;6.95;100.00
21826;BME280;11075;47.944;11.776;2023-07-20T00:02:51;94670.63;;;7.02;97.14
21826;BME280;11075;47.944;11.776;2023-07-20T00:05:18;94669.84;;;7.62;93.59
21826;BME280;11075;47.944;11.776;2023-07-20T00:07:47;94669.66;;;8.22;88.98
21826;BME280;11075;47.944;11.776;2023-07-20T00:10:18;94657.03;;;7.76;90.20
21826;BME280;11075;47.944;11.776;2023-07-20T00:12:45;94658.69;;;8.36;86.63
21826;BME280;11075;47.944;11.776;2023-07-20T00:15:14;94660.91;;;8.05;90.89
21826;BME280;11075;47.944;11.776;2023-07-20T00:17:41;94666.34;;;7.70;91.45
21826;BME280;11075;47.944;11.776;2023-07-20T00:20:09;94667.84;;;7.97;92.32
21826;BME280;11075;47.944;11.776;2023-07-20T00:22:36;94664.38;;;8.05;92.51
21826;BME280;11075;47.944;11.776;2023-07-20T00:25:03;94671.38;;;7.80;94.25
21826;BME280;11075;47.944;11.776;2023-07-20T00:27:30;94679.53;;;7.92;93.34
21826;BME280;11075;47.944;11.776;2023-07-20T00:29:57;94670.50;;;8.14;91.21
21826;BME280;11075;47.944;11.776;2023-07-20T00:32:23;94678.94;;;8.34;87.64
21826;BME280;11075;47.944;11.776;2023-07-20T00:34:50;94680.28;;;8.10;89.40
21826;BME280;11075;47.944;11.776;2023-07-20T00:37:17;94679.13;;;7.73;94.20
21826;BME280;11075;47.944;11.776;2023-07-20T00:39:44;94678.97;;;7.61;93.50
21826;BME280;11075;47.944;11.776;2023-07-20T00:42:11;94686.47;;;7.93;92.08
21826;BME280;11075;47.944;11.776;2023-07-20T00:44:38;94691.50;;;8.12;89.02
21826;BME280;11075;47.944;11.776;2023-07-20T00:47:05;94690.59;;;8.38;87.72
21826;BME280;11075;47.944;11.776;2023-07-20T00:49:32;94696.59;;;7.79;94.58
21826;BME280;11075;47.944;11.776;2023-07-20T00:52:01;94680.69;;;8.30;89.12
21826;BME280;11075;47.944;11.776;2023-07-20T00:54:30;94679.41;;;7.80;90.57
21826;BME280;11075;47.944;11.776;2023-07-20T00:56:57;94671.25;;;7.68;92.66
21826;BME280;11075;47.944;11.776;2023-07-20T00:59:25;94670.00;;;7.05;100.00
21826;BME280;11075;47.944;11.776;2023-07-20T01:01:52;94668.44;;;7.47;98.61
21826;BME280;11075;47.944;11.776;2023-07-20T01:04:20;94681.50;;;7.66;93.11
21826;BME280;11075;47.944;11.776;2023-07-20T01:07:01;94685.66;;;8.02;91.30
21826;BME280;11075;47.944;11.776;2023-07-20T01:09:39;94681.34;;;8.27;89.26
21826;BME280;11075;47.944;11.776;2023-07-20T01:12:36;94689.38;;;8.27;87.55
21826;BME280;11075;47.944;11.776;2023-07-20T01:15:08;94685.44;;;7.69;94.16
21826;BME280;11075;47.944;11.776;2023-07-20T01:17:35;94689.13;;;8.11;89.93
21826;BME280;11075;47.944;11.776;2023-07-20T01:20:03;94690.34;;;7.58;94.08
21826;BME280;11075;47.944;11.776;2023-07-20T01:30:46;94675.13;;;8.35;87.39
21826;BME280;11075;47.944;11.776;2023-07-20T01:33:19;94663.50;;;8.22;88.37
21826;BME280;11075;47.944;11.776;2023-07-20T01:35:52;94665.22;;;8.27;86.94
21826;BME280;11075;47.944;11.776;2023-07-20T01:38:20;94658.81;;;8.02;88.47
21826;BME280;11075;47.944;11.776;2023-07-20T01:40:50;94667.31;;;8.21;89.07
21826;BME280;11075;47.944;11.776;2023-07-20T01:43:17;94664.75;;;8.24;87.19
21826;BME280;11075;47.944;11.776;2023-07-20T01:45:44;94663.66;;;8.26;86.12
21826;BME280;11075;47.944;11.776;2023-07-20T01:48:12;94660.34;;;8.20;88.77
21826;BME280;11075;47.944;11.776;2023-07-20T01:50:41;94668.16;;;8.04;89.96
21826;BME280;11075;47.944;11.776;2023-07-20T01:53:08;94678.97;;;7.70;96.21
21826;BME280;11075;47.944;11.776;2023-07-20T01:55:35;94655.50;;;8.13;88.75
21826;BME280;11075;47.944;11.776;2023-07-20T01:58:02;94659.72;;;8.23;87.40
21826;BME280;11075;47.944;11.776;2023-07-20T02:00:30;94669.31;;;8.33;88.16
21826;BME280;11075;47.944;11.776;2023-07-20T02:02:56;94666.31;;;7.79;93.10
21826;BME280;11075;47.944;11.776;2023-07-20T02:05:23;94676.53;;;8.03;91.11
21826;BME280;11075;47.944;11.776;2023-07-20T02:07:51;94677.88;;;8.55;86.53
21826;BME280;11075;47.944;11.776;2023-07-20T02:10:19;94679.91;;;8.29;87.39
21826;BME280;11075;47.944;11.776;2023-07-20T02:12:46;94676.44;;;8.58;86.56
21826;BME280;11075;47.944;11.776;2023-07-20T02:15:13;94679.16;;;7.56;93.37
21826;BME280;11075;47.944;11.776;2023-07-20T02:17:42;94674.53;;;7.74;91.41
21826;BME280;11075;47.944;11.776;2023-07-20T02:20:10;94679.91;;;6.79;100.00
21826;BME280;11075;47.944;11.776;2023-07-20T02:22:37;94677.09;;;7.62;95.56
21826;BME280;11075;47.944;11.776;2023-07-20T02:25:06;94679.34;;;7.98;94.43
21826;BME280;11075;47.944;11.776;2023-07-20T02:27:37;94687.31;;;7.68;92.43
21826;BME280;11075;47.944;11.776;2023-07-20T02:30:04;94679.56;;;7.84;90.07
21826;BME280;11075;47.944;11.776;2023-07-20T02:32:31;94683.47;;;8.04;90.70
21826;BME280;11075;47.944;11.776;2023-07-20T02:34:58;94673.31;;;8.18;89.41
21826;BME280;11075;47.944;11.776;2023-07-20T02:37:25;94666.88;;;8.02;89.93
21826;BME280;11075;47.944;11.776;2023-07-20T02:39:52;94680.75;;;7.40;97.32
21826;BME280;11075;47.944;11.776;2023-07-20T02:42:19;94678.91;;;7.96;92.66
21826;BME280;11075;47.944;11.776;2023-07-20T02:44:49;94675.84;;;8.14;89.84
21826;BME280;11075;47.944;11.776;2023-07-20T02:47:16;94678.22;;;8.16;89.46
21826;BME280;11075;47.944;11.776;2023-07-20T02:49:43;94668.38;;;7.73;92.62
21826;BME280;11075;47.944;11.776;2023-07-20T02:52:10;94671.84;;;7.82;92.24
21826;BME280;11075;47.944;11.776;2023-07-20T02:54:37;94679.44;;;7.63;93.38
21826;BME280;11075;47.944;11.776;2023-07-20T02:57:04;94677.56;;;7.55;94.87
21826;BME280;11075;47.944;11.776;2023-07-20T02:59:31;94673.56;;;7.87;91.59
21826;BME280;11075;47.944;11.776;2023-07-20T03:01:58;94666.69;;;7.60;93.34
21826;BME280;11075;47.944;11.776;2023-07-20T03:04:28;94676.38;;;7.90;90.61
21826;BME280;11075;47.944;11.776;2023-07-20T03:06:55;94666.38;;;8.17;89.09
21826;BME280;11075;47.944;11.776;2023-07-20T03:09:22;94680.50;;;7.88;91.69
21826;BME280;11075;47.944;11.776;2023-07-20T03:11:49;94687.34;;;7.59;95.46
21826;BME280;11075;47.944;11.776;2023-07-20T03:14:16;94693.44;;;7.86;91.40
21826;BME280;11075;47.944;11.776;2023-07-20T03:16:43;94698.16;;;7.89;93.40
21826;BME280;11075;47.944;11.776;2023-07-20T03:19:12;94691.38;;;7.91;93.50
21826;BME280;11075;47.944;11.776;2023-07-20T03:21:40;94673.06;;;7.93;90.22
21826;BME280;11075;47.944;11.776;2023-07-20T03:24:08;94685.94;;;7.02;97.95
21826;BME280;11075;47.944;11.776;2023-07-20T03:26:35;94681.69;;;7.52;96.53
21826;BME280;11075;47.944;11.776;2023-07-20T03:29:05;94686.69;;;7.71;95.41
21826;BME280;11075;47.944;11.776;2023-07-20T03:31:33;94690.34;;;7.06;100.00
21826;BME280;11075;47.944;11.776;2023-07-20T03:34:00;94688.31;;;7.46;97.39
21826;BME280;11075;47.944;11.776;2023-07-20T03:36:27;94693.97;;;7.62;96.76
21826;BME280;11075;47.944;11.776;2023-07-20T03:38:53;94715.38;;;6.93;100.00
21826;BME280;11075;47.944;11.776;2023-07-20T03:41:20;94722.69;;;6.53;100.00
21826;BME280;11075;47.944;11.776;2023-07-20T03:43:48;94753.97;;;6.92;100.00
21826;BME280;11075;47.944;11.776;2023-07-20T03:46:15;94752.97;;;7.27;97.87
21826;BME280;11075;47.944;11.776;2023-07-20T03:48:42;94730.69;;;7.01;94.01
21826;BME280;11075;47.944;11.776;2023-07-20T03:51:09;94707.19;;;7.67;86.20
21826;BME280;11075;47.944;11.776;2023-07-20T03:53:36;94716.16;;;6.37;94.35
21826;BME280;11075;47.944;11.776;2023-07-20T03:56:03;94732.00;;;6.55;100.00
21826;BME280;11075;47.944;11.776;2023-07-20T03:58:30;94734.94;;;7.19;96.65
21826;BME280;11075;47.944;11.776;2023-07-20T04:00:58;94737.72;;;6.80;93.05
21826;BME280;11075;47.944;11.776;2023-07-20T04:03:25;94736.78;;;6.76;92.79
21826;BME280;11075;47.944;11.776;2023-07-20T04:05:54;94742.69;;;7.21;92.36
21826;BME280;11075;47.944;11.776;2023-07-20T04:08:24;94748.47;;;6.97;88.43
21826;BME280;11075;47.944;11.776;2023-07-20T04:10:52;94743.94;;;7.06;83.01
21826;BME280;11075;47.944;11.776;2023-07-20T04:13:19;94743.50;;;7.30;84.94
21826;BME280;11075;47.944;11.776;2023-07-20T04:15:46;94762.03;;;6.44;87.72
21826;BME280;11075;47.944;11.776;2023-07-20T04:18:13;94745.41;;;6.64;87.94
21826;BME280;11075;47.944;11.776;2023-07-20T04:20:39;94751.97;;;6.49;86.14
21826;BME280;11075;47.944;11.776;2023-07-20T04:23:06;94757.88;;;6.38;91.36
21826;BME280;11075;47.944;11.776;2023-07-20T04:25:33;94752.59;;;7.03;84.00
21826;BME280;11075;47.944;11.776;2023-07-20T04:28:07;94755.75;;;7.05;82.85
21826;BME280;11075;47.944;11.776;2023-07-20T04:30:42;94747.63;;;6.71;82.69
21826;BME280;11075;47.944;11.776;2023-07-20T04:33:09;94759.66;;;6.42;90.06
21826;BME280;11075;47.944;11.776;2023-07-20T04:35:52;94763.00;;;7.13;84.25
21826;BME280;11075;47.944;11.776;2023-07-20T04:38:26;94762.69;;;7.06;86.66
21826;BME280;11075;47.944;11.776;2023-07-20T04:41:00;94752.66;;;7.29;85.41
21826;BME280;11075;47.944;11.776;2023-07-20T04:43:30;94763.41;;;6.81;91.97
21826;BME280;11075;47.944;11.776;2023-07-20T04:45:57;94758.81;;;6.73;91.41
21826;BME280;11075;47.944;11.776;2023-07-20T04:48:25;94764.00;;;6.69;90.53
21826;BME280;11075;47.944;11.776;2023-07-20T04:50:54;94766.66;;;6.60;91.10
21826;BME280;11075;47.944;11.776;2023-07-20T04:53:23;94760.78;;;7.15;87.01
21826;BME280;11075;47.944;11.776;2023-07-20T04:55:50;94755.22;;;6.77;85.47
21826;BME280;11075;47.944;11.776;2023-07-20T04:58:20;94762.34;;;6.99;88.33
21826;BME280;11075;47.944;11.776;2023-07-20T05:00:49;94773.31;;;6.72;90.84
21826;BME280;11075;47.944;11.776;2023-07-20T05:03:17;94775.44;;;7.01;89.13
21826;BME280;11075;47.944;11.776;2023-07-20T05:05:46;94780.81;;;6.52;91.32
21826;BME280;11075;47.944;11.776;2023-07-20T05:08:16;94778.59;;;6.54;92.89
21826;BME280;11075;47.944;11.776;2023-07-20T05:10:43;94784.84;;;6.81;89.59
21826;BME280;11075;47.944;11.776;2023-07-20T05:13:10;94780.91;;;6.16;92.16
21826;BME280;11075;47.944;11.776;2023-07-20T05:15:36;94785.72;;;6.59;89.59
21826;BME280;11075;47.944;11.776;2023-07-20T05:18:04;94773.09;;;6.51;88.99
21826;BME280;11075;47.944;11.776;2023-07-20T05:20:32;94779.84;;;5.95;94.06
21826;BME280;11075;47.944;11.776;2023-07-20T05:23:00;94777.97;;;6.26;93.42
21826;BME280;11075;47.944;11.776;2023-07-20T05:25:28;94772.06;;;6.78;88.58
21826;BME280;11075;47.944;11.776;2023-07-20T05:27:57;94770.91;;;6.30;92.06
21826;BME280;11075;47.944;11.776;2023-07-20T05:30:24;94772.03;;;7.35;85.09
21826;BME280;11075;47.944;11.776;2023-07-20T05:32:50;94778.34;;;6.73;88.96
21826;BME280;11075;47.944;11.776;2023-07-20T05:35:19;94764.16;;;6.64;89.09
21826;BME280;11075;47.944;11.776;2023-07-20T05:37:46;94771.00;;;6.87;90.58
21826;BME280;11075;47.944;11.776;2023-07-20T05:40:14;94761.78;;;7.37;83.20
21826;BME280;11075;47.944;11.776;2023-07-20T05:42:47;94759.44;;;6.70;87.65
21826;BME280;11075;47.944;11.776;2023-07-20T05:45:15;94768.81;;;6.98;86.19
21826;BME280;11075;47.944;11.776;2023-07-20T05:47:42;94767.34;;;6.75;89.34
21826;BME280;11075;47.944;11.776;2023-07-20T05:50:10;94767.84;;;6.94;89.19
21826;BME280;11075;47.944;11.776;2023-07-20T05:52:37;94765.38;;;7.15;86.83
21826;BME280;11075;47.944;11.776;2023-07-20T05:55:06;94764.75;;;7.18;87.17
21826;BME280;11075;47.944;11.776;2023-07-20T05:57:33;94770.81;;;6.84;90.13
21826;BME280;11075;47.944;11.776;2023-07-20T06:00:00;94763.31;;;7.03;88.23
21826;BME280;11075;47.944;11.776;2023-07-20T06:02:37;94767.25;;;7.06;85.92
21826;BME280;11075;47.944;11.776;2023-07-20T06:05:05;94769.84;;;6.71;89.66
21826;BME280;11075;47.944;11.776;2023-07-20T06:07:32;94776.47;;;6.74;90.46
21826;BME280;11075;47.944;11.776;2023-07-20T06:09:59;94779.53;;;6.98;88.86
21826;BME280;11075;47.944;11.776;2023-07-20T06:12:26;94790.19;;;6.81;92.72
21826;BME280;11075;47.944;11.776;2023-07-20T06:14:52;94774.81;;;7.12;88.17
21826;BME280;11075;47.944;11.776;2023-07-20T06:17:20;94788.69;;;7.14;85.92
21826;BME280;11075;47.944;11.776;2023-07-20T06:19:47;94785.59;;;7.73;83.30
21826;BME280;11075;47.944;11.776;2023-07-20T06:22:14;94776.94;;;7.41;84.59
21826;BME280;11075;47.944;11.776;2023-07-20T06:24:41;94784.78;;;7.98;81.63
21826;BME280;11075;47.944;11.776;2023-07-20T06:27:07;94777.53;;;7.99;82.06
21826;BME280;11075;47.944;11.776;2023-07-20T06:29:34;94780.72;;;7.49;84.40
21826;BME280;11075;47.944;11.776;2023-07-20T06:32:01;94777.41;;;7.60;84.54
21826;BME280;11075;47.944;11.776;2023-07-20T06:34:28;94781.34;;;7.80;84.56
21826;BME280;11075;47.944;11.776;2023-07-20T06:36:56;94780.47;;;8.32;80.79
21826;BME280;11075;47.944;11.776;2023-07-20T06:39:23;94782.56;;;8.17;80.51
21826;BME280;11075;47.944;11.776;2023-07-20T06:41:52;94789.38;;;7.89;83.13
21826;BME280;11075;47.944;11.776;2023-07-20T06:44:21;94786.25;;;7.44;86.42
21826;BME280;11075;47.944;11.776;2023-07-20T06:46:48;94791.22;;;7.19;87.59
21826;BME280;11075;47.944;11.776;2023-07-20T06:49:25;94789.38;;;7.37;88.17
21826;BME280;11075;47.944;11.776;2023-07-20T06:51:53;94776.94;;;7.67;85.97
21826;BME280;11075;47.944;11.776;2023-07-20T06:54:19;94782.91;;;7.81;86.34
21826;BME280;11075;47.944;11.776;2023-07-20T06:56:49;94785.28;;;7.91;86.13
21826;BME280;11075;47.944;11.776;2023-07-20T06:59:36;94787.19;;;7.74;88.06
21826;BME280;11075;47.944;11.776;2023-07-20T07:02:08;94780.84;;;7.96;85.06
21826;BME280;11075;47.944;11.776;2023-07-20T07:04:41;94789.84;;;7.91;85.62
21826;BME280;11075;47.944;11.776;2023-07-20T07:07:09;94787.81;;;7.53;90.34
21826;BME280;11075;47.944;11.776;2023-07-20T07:09:36;94786.38;;;7.99;86.82
21826;BME280;11075;47.944;11.776;2023-07-20T07:12:04;94795.22;;;7.82;86.30
21826;BME280;11075;47.944;11.776;2023-07-20T07:14:31;94798.38;;;7.93;87.03
21826;BME280;11075;47.944;11.776;2023-07-20T07:16:59;94792.53;;;7.74;86.06
21826;BME280;11075;47.944;11.776;2023-07-20T07:19:31;94795.06;;;7.79;87.58
21826;BME280;11075;47.944;11.776;2023-07-20T07:21:58;94793.16;;;7.97;86.58
21826;BME280;11075;47.944;11.776;2023-07-20T07:24:26;94793.09;;;8.78;82.47
21826;BME280;11075;47.944;11.776;2023-07-20T07:26:55;94786.09;;;8.94;79.72
21826;BME280;11075;47.944;11.776;2023-07-20T07:29:22;94786.75;;;8.91;82.50
21826;BME280;11075;47.944;11.776;2023-07-20T07:31:49;94778.13;;;8.68;80.53
21826;BME280;11075;47.944;11.776;2023-07-20T07:34:16;94783.13;;;8.87;80.67
21826;BME280;11075;47.944;11.776;2023-07-20T07:36:43;94780.97;;;8.72;81.05
21826;BME280;11075;47.944;11.776;2023-07-20T07:39:10;94780.84;;;8.13;85.08
21826;BME280;11075;47.944;11.776;2023-07-20T07:41:39;94783.88;;;8.96;77.48
21826;BME280;11075;47.944;11.776;2023-07-20T07:44:06;94774.50;;;10.39;71.88
21826;BME280;11075;47.944;11.776;2023-07-20T07:46:33;94781.47;;;10.07;71.00
21826;BME280;11075;47.944;11.776;2023-07-20T07:49:00;94785.56;;;9.30;76.15
21826;BME280;11075;47.944;11.776;2023-07-20T07:51:27;94783.44;;;9.98;70.75
21826;BME280;11075;47.944;11.776;2023-07-20T07:53:54;94780.25;;;10.50;69.33
21826;BME280;11075;47.944;11.776;2023-07-20T07:56:21;94779.53;;;10.29;71.32
21826;BME280;11075;47.944;11.776;2023-07-20T07:58:50;94776.75;;;10.50;66.33
21826;BME280;11075;47.944;11.776;2023-07-20T08:01:18;94773.16;;;11.43;64.46
21826;BME280;11075;47.944;11.776;2023-07-20T08:03:49;94785.00;;;9.66;64.12
21826;BME280;11075;47.944;11.776;2023-07-20T08:06:16;94777.34;;;10.67;63.65
21826;BME280;11075;47.944;11.776;2023-07-20T08:08:43;94769.50;;;11.23;62.28
21826;BME280;11075;47.944;11.776;2023-07-20T08:11:10;94784.66;;;9.89;60.69
21826;BME280;11075;47.944;11.776;2023-07-20T08:13:39;94776.06;;;10.28;59.19
21826;BME280;11075;47.944;11.776;2023-07-20T08:16:05;94781.19;;;11.15;60.43
21826;BME280;11075;47.944;11.776;2023-07-20T08:18:32;94774.81;;;11.60;57.97
21826;BME280;11075;47.944;11.776;2023-07-20T08:20:59;94786.53;;;10.66;61.57
21826;BME280;11075;47.944;11.776;2023-07-20T08:23:26;94780.88;;;10.35;59.94
21826;BME280;11075;47.944;11.776;2023-07-20T08:25:54;94791.59;;;9.90;63.62
21826;BME280;11075;47.944;11.776;2023-07-20T08:28:21;94791.22;;;10.12;64.22
21826;BME280;11075;47.944;11.776;2023-07-20T08:30:49;94799.78;;;9.31;67.11
21826;BME280;11075;47.944;11.776;2023-07-20T08:33:18;94790.56;;;10.15;67.57
21826;BME280;11075;47.944;11.776;2023-07-20T08:35:46;94798.91;;;9.68;67.01
21826;BME280;11075;47.944;11.776;2023-07-20T08:38:14;94795.28;;;10.18;64.30
21826;BME280;11075;47.944;11.776;2023-07-20T08:40:45;94783.72;;;10.17;63.76
21826;BME280;11075;47.944;11.776;2023-07-20T08:43:14;94787.75;;;10.44;60.82
21826;BME280;11075;47.944;11.776;2023-07-20T08:45:44;94790.63;;;11.09;58.21
21826;BME280;11075;47.944;11.776;2023-07-20T08:48:12;94789.13;;;11.36;56.69
21826;BME280;11075;47.944;11.776;2023-07-20T08:50:39;94785.09;;;11.30;57.65
21826;BME280;11075;47.944;11.776;2023-07-20T08:53:08;94786.19;;;11.93;58.85
21826;BME280;11075;47.944;11.776;2023-07-20T08:55:36;94780.25;;;12.31;51.39
21826;BME280;11075;47.944;11.776;2023-07-20T08:58:05;94790.56;;;13.71;48.12
21826;BME280;11075;47.944;11.776;2023-07-20T09:00:36;94785.03;;;12.97;51.38
21826;BME280;11075;47.944;11.776;2023-07-20T09:03:03;94789.59;;;10.77;50.80
21826;BME280;11075;47.944;11.776;2023-07-20T09:05:30;94791.59;;;10.68;47.67
21826;BME280;11075;47.944;11.776;2023-07-20T09:07:59;94790.16;;;11.31;50.69
21826;BME280;11075;47.944;11.776;2023-07-20T09:10:26;94788.47;;;10.90;50.14
21826;BME280;11075;47.944;11.776;2023-07-20T09:12:53;94778.06;;;12.65;46.20
21826;BME280;11075;47.944;11.776;2023-07-20T09:15:22;94786.50;;;10.42;45.79
21826;BME280;11075;47.944;11.776;2023-07-20T09:17:50;94778.81;;;10.65;48.89
21826;BME280;11075;47.944;11.776;2023-07-20T09:20:18;94768.81;;;11.26;47.51
21826;BME280;11075;47.944;11.776;2023-07-20T09:22:50;94765.97;;;11.87;47.77
21826;BME280;11075;47.944;11.776;2023-07-20T09:25:19;94758.03;;;10.08;47.22
21826;BME280;11075;47.944;11.776;2023-07-20T09:27:49;94755.22;;;12.03;47.41
21826;BME280;11075;47.944;11.776;2023-07-20T09:30:18;94752.94;;;11.37;49.03
21826;BME280;11075;47.944;11.776;2023-07-20T09:32:49;94765.06;;;11.83;47.52
21826;BME280;11075;47.944;11.776;2023-07-20T09:35:22;94763.03;;;13.15;42.58
21826;BME280;11075;47.944;11.776;2023-07-20T09:37:58;94758.34;;;12.64;45.08
21826;BME280;11075;47.944;11.776;2023-07-20T09:40:29;94754.66;;;12.88;44.79
21826;BME280;11075;47.944;11.776;2023-07-20T09:42:59;94755.41;;;14.13;41.77
21826;BME280;11075;47.944;11.776;2023-07-20T09:45:35;94743.19;;;14.88;46.26
21826;BME280;11075;47.944;11.776;2023-07-20T09:48:06;94753.25;;;13.80;44.24
21826;BME280;11075;47.944;11.776;2023-07-20T09:50:55;94755.72;;;13.15;45.69
21826;BME280;11075;47.944;11.776;2023-07-20T09:53:24;94749.88;;;12.34;48.64
21826;BME280;11075;47.944;11.776;2023-07-20T09:55:52;94747.28;;;13.55;46.68
21826;BME280;11075;47.944;11.776;2023-07-20T09:58:19;94750.31;;;13.89;44.15
21826;BME280;11075;47.944;11.776;2023-07-20T10:00:48;94739.72;;;15.70;43.62
21826;BME280;11075;47.944;11.776;2023-07-20T10:03:28;94737.81;;;14.91;43.39
21826;BME280;11075;47.944;11.776;2023-07-20T10:06:05;94748.03;;;13.72;44.40
21826;BME280;11075;47.944;11.776;2023-07-20T10:08:38;94733.31;;;14.76;43.62
21826;BME280;11075;47.944;11.776;2023-07-20T10:11:10;94719.91;;;15.40;42.01
21826;BME280;11075;47.944;11.776;2023-07-20T10:13:38;94738.03;;;14.14;41.42
21826;BME280;11075;47.944;11.776;2023-07-20T10:16:10;94728.81;;;13.22;43.28
21826;BME280;11075;47.944;11.776;2023-07-20T10:18:53;94735.16;;;12.32;42.40
21826;BME280;11075;47.944;11.776;2023-07-20T10:21:22;94731.09;;;13.75;42.92
21826;BME280;11075;47.944;11.776;2023-07-20T10:23:56;94734.44;;;15.24;40.98
21826;BME280;11075;47.944;11.776;2023-07-20T10:26:25;94709.28;;;15.01;43.44
21826;BME280;11075;47.944;11.776;2023-07-20T10:28:53;94709.88;;;14.42;43.80
21826;BME280;11075;47.944;11.776;2023-07-20T10:31:22;94714.41;;;14.34;45.33
21826;BME280;11075;47.944;11.776;2023-07-20T10:33:49;94714.47;;;13.95;44.37
21826;BME280;11075;47.944;11.776;2023-07-20T10:36:24;94721.59;;;12.16;48.31
21826;BME280;11075;47.944;11.776;2023-07-20T10:38:56;94719.22;;;12.58;49.46
21826;BME280;11075;47.944;11.776;2023-07-20T10:41:28;94718.22;;;11.63;48.28
21826;BME280;11075;47.944;11.776;2023-07-20T10:44:02;94716.06;;;12.41;47.42
21826;BME280;11075;47.944;11.776;2023-07-20T10:49:08;94712.94;;;14.86;41.59
21826;BME280;11075;47.944;11.776;2023-07-20T10:54:08;94707.09;;;15.67;40.96
21826;BME280;11075;47.944;11.776;2023-07-20T10:56:35;94706.03;;;15.18;40.37
21826;BME280;11075;47.944;11.776;2023-07-20T10:59:17;94712.28;;;14.47;41.76
21826;BME280;11075;47.944;11.776;2023-07-20T11:01:47;94712.06;;;12.50;42.67
21826;BME280;11075;47.944;11.776;2023-07-20T11:04:19;94703.91;;;13.32;45.81
21826;BME280;11075;47.944;11.776;2023-07-20T11:06:47;94710.97;;;13.02;42.08
21826;BME280;11075;47.944;11.776;2023-07-20T11:09:22;94705.84;;;13.90;45.08
21826;BME280;11075;47.944;11.776;2023-07-20T11:12:12;94679.97;;;14.84;40.04
21826;BME280;11075;47.944;11.776;2023-07-20T11:14:53;94682.38;;;14.40;41.18
21826;BME280;11075;47.944;11.776;2023-07-20T11:17:29;94690.59;;;14.47;41.32
21826;BME280;11075;47.944;11.776;2023-07-20T11:19:57;94683.19;;;14.44;42.27
21826;BME280;11075;47.944;11.776;2023-07-20T11:22:27;94694.56;;;12.95;44.88
21826;BME280;11075;47.944;11.776;2023-07-20T11:24:57;94692.56;;;13.08;43.44
21826;BME280;11075;47.944;11.776;2023-07-20T11:27:25;94694.66;;;13.33;42.71
21826;BME280;11075;47.944;11.776;2023-07-20T11:29:52;94694.19;;;12.46;42.72
21826;BME280;11075;47.944;11.776;2023-07-20T11:32:23;94683.91;;;13.76;41.45
21826;BME280;11075;47.944;11.776;2023-07-20T11:34:51;94660.97;;;15.70;39.02
21826;BME280;11075;47.944;11.776;2023-07-20T11:37:18;94664.56;;;13.96;41.12
21826;BME280;11075;47.944;11.776;2023-07-20T11:39:45;94671.09;;;16.54;37.10
21826;BME280;11075;47.944;11.776;2023-07-20T11:42:13;94666.81;;;14.37;41.14
21826;BME280;11075;47.944;11.776;2023-07-20T11:45:03;94668.84;;;13.97;39.76
21826;BME280;11075;47.944;11.776;2023-07-20T11:47:32;94661.81;;;13.74;41.80
21826;BME280;11075;47.944;11.776;2023-07-20T11:50:03;94637.31;;;16.08;40.46
21826;BME280;11075;47.944;11.776;2023-07-20T11:52:31;94662.97;;;13.73;40.40
21826;BME280;11075;47.944;11.776;2023-07-20T11:54:58;94669.72;;;14.47;36.97
21826;BME280;11075;47.944;11.776;2023-07-20T11:57:25;94650.56;;;17.15;36.51
21826;BME280;11075;47.944;11.776;2023-07-20T12:00:01;94654.03;;;15.76;36.62
21826;BME280;11075;47.944;11.776;2023-07-20T12:02:31;94637.97;;;15.01;37.34
21826;BME280;11075;47.944;11.776;2023-07-20T12:04:58;94646.22;;;14.09;39.53
21826;BME280;11075;47.944;11.776;2023-07-20T12:07:28;94641.88;;;13.43;38.74
21826;BME280;11075;47.944;11.776;2023-07-20T12:10:10;94632.81;;;15.22;38.62
21826;BME280;11075;47.944;11.776;2023-07-20T12:12:42;94646.41;;;14.43;39.30
21826;BME280;11075;47.944;11.776;2023-07-20T12:15:23;94650.84;;;16.48;35.48
21826;BME280;11075;47.944;11.776;2023-07-20T12:17:52;94626.81;;;14.79;39.54
21826;BME280;11075;47.944;11.776;2023-07-20T12:20:33;94633.00;;;13.62;38.58
21826;BME280;11075;47.944;11.776;2023-07-20T12:23:10;94635.69;;;14.04;38.53
21826;BME280;11075;47.944;11.776;2023-07-20T12:25:37;94624.72;;;14.20;40.94
21826;BME280;11075;47.944;11.776;2023-07-20T12:28:16;94622.78;;;13.97;39.98
21826;BME280;11075;47.944;11.776;2023-07-20T12:30:44;94611.81;;;13.67;39.68
21826;BME280;11075;47.944;11.776;2023-07-20T12:33:11;94628.78;;;13.45;39.63
21826;BME280;11075;47.944;11.776;2023-07-20T12:35:42;94611.72;;;16.60;39.75
21826;BME280;11075;47.944;11.776;2023-07-20T12:38:10;94604.13;;;14.15;40.53
21826;BME280;11075;47.944;11.776;2023-07-20T12:40:36;94626.19;;;14.37;39.11
21826;BME280;11075;47.944;11.776;2023-07-20T12:43:03;94628.63;;;14.72;35.80
21826;BME280;11075;47.944;11.776;2023-07-20T12:45:31;94597.75;;;16.62;35.32
21826;BME280;11075;47.944;11.776;2023-07-20T12:47:58;94627.97;;;16.53;32.61
21826;BME280;11075;47.944;11.776;2023-07-20T12:50:26;94614.09;;;16.65;32.29
21826;BME280;11075;47.944;11.776;2023-07-20T12:52:53;94583.13;;;17.99;35.06
21826;BME280;11075;47.944;11.776;2023-07-20T12:55:20;94609.25;;;18.39;31.69
21826;BME280;11075;47.944;11.776;2023-07-20T12:57:47;94613.28;;;17.30;32.79
21826;BME280;11075;47.944;11.776;2023-07-20T13:00:14;94601.66;;;16.16;35.23
21826;BME280;11075;47.944;11.776;2023-07-20T13:02:41;94571.97;;;16.45;36.49
21826;BME280;11075;47.944;11.776;2023-07-20T13:05:08;94611.31;;;17.20;32.82
21826;BME280;11075;47.944;11.776;2023-07-20T13:07:37;94587.03;;;15.17;35.44
21826;BME280;11075;47.944;11.776;2023-07-20T13:10:08;94588.47;;;15.78;36.32
21826;BME280;11075;47.944;11.776;2023-07-20T13:12:36;94613.00;;;14.88;34.76
21826;BME280;11075;47.944;11.776;2023-07-20T13:15:05;94596.03;;;15.24;37.39
21826;BME280;11075;47.944;11.776;2023-07-20T13:17:33;94594.34;;;14.30;38.43